createdAt,value
2022-09-13T00:02:13.661Z,15.19
2022-09-13T00:04:39.976Z,15.16
2022-09-13T00:07:06.225Z,15.13
2022-09-13T00:09:32.484Z,14.99
2022-09-13T00:11:58.739Z,14.98
2022-09-13T00:14:26.606Z,14.85
2022-09-13T00:16:52.869Z,14.70
2022-09-13T00:19:19.139Z,14.71
2022-09-13T00:21:45.563Z,14.63
2022-09-13T00:24:11.856Z,14.70
2022-09-13T00:26:38.143Z,14.61
2022-09-13T00:29:04.398Z,14.61
2022-09-13T00:31:30.731Z,14.45
2022-09-13T00:33:58.434Z,14.18
2022-09-13T00:36:24.711Z,14.32
2022-09-13T00:38:50.977Z,14.24
2022-09-13T00:41:17.269Z,14.43
2022-09-13T00:43:43.524Z,14.47
2022-09-13T00:46:09.837Z,14.50
2022-09-13T00:48:36.137Z,14.52
2022-09-13T00:51:02.416Z,14.50
2022-09-13T00:53:30.067Z,14.51
2022-09-13T00:55:56.319Z,14.51
2022-09-13T00:58:22.589Z,14.39
2022-09-13T01:00:48.936Z,14.37
2022-09-13T01:03:15.219Z,14.41
2022-09-13T01:05:41.502Z,14.36
2022-09-13T01:08:18.045Z,14.20
2022-09-13T01:10:44.311Z,14.15
2022-09-13T01:13:14.720Z,14.23
2022-09-13T01:15:40.991Z,14.16
2022-09-13T01:18:07.290Z,14.02
2022-09-13T01:20:33.548Z,13.85
2022-09-13T01:22:59.815Z,13.88
2022-09-13T01:25:27.427Z,13.94
2022-09-13T01:27:53.988Z,13.84
2022-09-13T01:30:20.501Z,13.92
2022-09-13T01:32:46.756Z,13.95
2022-09-13T01:35:13.012Z,13.90
2022-09-13T01:37:39.695Z,13.94
2022-09-13T01:40:06.244Z,14.05
2022-09-13T01:42:32.559Z,13.90
2022-09-13T01:44:58.839Z,13.91
2022-09-13T01:47:25.611Z,13.87
2022-09-13T01:49:51.887Z,13.75
2022-09-13T01:52:18.191Z,13.74
2022-09-13T01:54:44.457Z,13.82
2022-09-13T01:57:10.807Z,13.91
2022-09-13T01:59:37.093Z,13.95
2022-09-13T02:02:03.418Z,13.95
2022-09-13T02:04:29.728Z,13.98
2022-09-13T02:06:55.991Z,13.97
2022-09-13T02:09:22.254Z,13.78
2022-09-13T02:11:48.518Z,13.87
2022-09-13T02:14:14.771Z,13.87
2022-09-13T02:16:41.304Z,13.92
2022-09-13T02:19:07.624Z,13.82
2022-09-13T02:21:34.021Z,13.77
2022-09-13T02:24:00.284Z,13.83
2022-09-13T02:26:26.536Z,13.71
2022-09-13T02:28:53.447Z,13.72
2022-09-13T02:31:19.813Z,13.58
2022-09-13T02:33:46.240Z,13.49
2022-09-13T02:36:12.559Z,13.64
2022-09-13T02:38:38.823Z,13.68
2022-09-13T02:41:05.079Z,13.61
2022-09-13T02:43:31.624Z,13.68
2022-09-13T02:45:59.240Z,13.68
2022-09-13T02:48:25.516Z,13.72
2022-09-13T02:50:51.871Z,13.58
2022-09-13T02:53:18.119Z,13.66
2022-09-13T02:55:44.393Z,13.69
2022-09-13T02:58:10.652Z,13.62
2022-09-13T03:00:36.908Z,13.74
2022-09-13T03:03:03.163Z,13.70
2022-09-13T03:05:29.424Z,13.70
2022-09-13T03:07:55.675Z,13.70
2022-09-13T03:10:23.111Z,13.69
2022-09-13T03:12:49.363Z,13.69
2022-09-13T03:15:15.629Z,13.70
2022-09-13T03:17:41.893Z,13.70
2022-09-13T03:20:09.384Z,13.73
2022-09-13T03:22:35.639Z,13.76
2022-09-13T03:25:01.903Z,13.74
2022-09-13T03:27:28.173Z,13.74
2022-09-13T03:29:54.449Z,13.73
2022-09-13T03:32:20.703Z,13.76
2022-09-13T03:34:46.958Z,13.78
2022-09-13T03:37:13.229Z,13.76
2022-09-13T03:39:39.533Z,13.73
2022-09-13T03:42:05.812Z,13.77
2022-09-13T03:44:32.078Z,13.79
2022-09-13T03:46:58.341Z,13.78
2022-09-13T03:49:24.617Z,13.78
2022-09-13T03:51:50.941Z,13.69
2022-09-13T03:54:17.200Z,13.73
2022-09-13T03:56:43.456Z,13.70
2022-09-13T03:59:09.720Z,13.69
2022-09-13T04:01:35.967Z,13.66
2022-09-13T04:04:02.245Z,13.68
2022-09-13T04:06:28.504Z,13.60
2022-09-13T04:08:54.779Z,13.64
2022-09-13T04:11:21.515Z,13.55
2022-09-13T04:13:47.879Z,13.49
2022-09-13T04:16:14.299Z,13.51
2022-09-13T04:18:40.809Z,13.53
2022-09-13T04:21:07.236Z,13.50
2022-09-13T04:23:33.538Z,13.47
2022-09-13T04:25:59.887Z,13.52
2022-09-13T04:28:26.192Z,13.50
2022-09-13T04:30:52.446Z,13.55
2022-09-13T04:33:18.694Z,13.58
2022-09-13T04:35:44.939Z,13.54
2022-09-13T04:38:14.511Z,13.56
2022-09-13T04:40:40.809Z,13.54
2022-09-13T04:43:07.080Z,13.55
2022-09-13T04:45:35.134Z,13.62
2022-09-13T04:48:01.324Z,13.58
2022-09-13T04:50:27.604Z,13.59
2022-09-13T04:52:53.880Z,13.55
2022-09-13T04:55:20.140Z,13.59
2022-09-13T04:57:46.388Z,13.61
2022-09-13T05:00:12.696Z,13.68
2022-09-13T05:02:38.951Z,13.61
2022-09-13T05:05:05.222Z,13.64
2022-09-13T05:07:31.489Z,13.69
2022-09-13T05:09:57.747Z,13.62
2022-09-13T05:12:23.996Z,13.68
2022-09-13T05:14:50.261Z,13.76
2022-09-13T05:17:16.521Z,13.79
2022-09-13T05:19:42.796Z,13.81
2022-09-13T05:22:09.057Z,13.86
2022-09-13T05:24:35.356Z,13.93
2022-09-13T05:27:01.615Z,13.98
2022-09-13T05:29:27.895Z,14.07
2022-09-13T05:31:54.158Z,14.12
2022-09-13T05:34:20.465Z,14.16
2022-09-13T05:36:54.035Z,14.19
2022-09-13T05:39:36.446Z,14.27
2022-09-13T05:42:08.405Z,14.34
2022-09-13T05:44:34.661Z,14.31
2022-09-13T05:47:00.923Z,14.52
2022-09-13T05:49:27.233Z,14.52
2022-09-13T05:51:53.512Z,14.56
2022-09-13T05:54:19.787Z,14.61
2022-09-13T05:56:46.044Z,14.57
2022-09-13T05:59:12.572Z,14.65
2022-09-13T06:01:38.864Z,14.67
2022-09-13T06:04:05.213Z,14.69
2022-09-13T06:06:31.473Z,14.78
2022-09-13T06:08:57.771Z,14.86
2022-09-13T06:11:24.045Z,14.96
2022-09-13T06:13:50.320Z,15.05
2022-09-13T06:16:17.254Z,15.23
2022-09-13T06:18:43.531Z,15.36
2022-09-13T06:21:09.887Z,15.59
2022-09-13T06:23:36.143Z,15.79
2022-09-13T06:26:02.433Z,15.97
2022-09-13T06:28:28.710Z,16.13
2022-09-13T06:30:54.984Z,16.01
2022-09-13T06:33:21.294Z,16.05
2022-09-13T06:35:47.567Z,16.09
2022-09-13T06:38:13.832Z,16.13
2022-09-13T06:40:40.099Z,15.95
2022-09-13T06:43:06.351Z,16.11
2022-09-13T06:45:32.627Z,16.23
2022-09-13T06:47:58.888Z,16.39
2022-09-13T06:50:25.160Z,16.57
2022-09-13T06:52:51.457Z,16.60
2022-09-13T06:55:17.736Z,16.85
2022-09-13T06:57:43.988Z,17.08
2022-09-13T07:00:10.248Z,16.90
2022-09-13T07:02:36.533Z,16.77
2022-09-13T07:05:02.792Z,16.91
2022-09-13T07:07:29.076Z,16.95
2022-09-13T07:09:55.331Z,17.15
2022-09-13T07:12:21.628Z,17.27
2022-09-13T07:14:47.884Z,17.28
2022-09-13T07:17:14.562Z,17.21
2022-09-13T07:19:40.857Z,17.17
2022-09-13T07:22:07.409Z,17.41
2022-09-13T07:24:33.672Z,17.68
2022-09-13T07:26:59.993Z,17.86
2022-09-13T07:29:26.254Z,17.75
2022-09-13T07:31:52.538Z,17.52
2022-09-13T07:34:19.000Z,17.49
2022-09-13T07:36:46.813Z,17.45
2022-09-13T07:39:15.730Z,17.69
2022-09-13T07:41:43.547Z,17.75
2022-09-13T07:44:09.813Z,17.70
2022-09-13T07:46:41.563Z,17.62
2022-09-13T07:49:07.931Z,17.61
2022-09-13T07:51:34.179Z,17.39
2022-09-13T07:54:00.443Z,17.43
2022-09-13T07:56:27.038Z,17.45
2022-09-13T07:58:54.960Z,17.48
2022-09-13T08:01:21.315Z,17.40
2022-09-13T08:03:47.581Z,17.45
2022-09-13T08:06:13.863Z,17.62
2022-09-13T08:08:40.153Z,17.60
2022-09-13T08:11:06.539Z,17.47
2022-09-13T08:13:33.038Z,17.56
2022-09-13T08:15:59.317Z,17.59
2022-09-13T08:18:25.627Z,17.59
2022-09-13T08:20:51.945Z,17.68
2022-09-13T08:23:18.191Z,17.75
2022-09-13T08:25:44.470Z,17.90
2022-09-13T08:28:10.909Z,18.02
2022-09-13T08:30:37.200Z,18.15
2022-09-13T08:33:03.494Z,18.15
2022-09-13T08:35:29.807Z,18.31
2022-09-13T08:37:56.059Z,18.39
2022-09-13T08:40:22.390Z,18.40
2022-09-13T08:42:48.687Z,18.16
2022-09-13T08:45:14.971Z,18.24
2022-09-13T08:47:41.249Z,18.16
2022-09-13T08:50:07.541Z,18.40
2022-09-13T08:52:33.800Z,18.50
2022-09-13T08:55:00.102Z,18.38
2022-09-13T08:57:26.370Z,18.35
2022-09-13T08:59:52.637Z,18.36
2022-09-13T09:02:18.935Z,18.35
2022-09-13T09:04:45.233Z,18.34
2022-09-13T09:07:11.515Z,18.44
2022-09-13T09:09:37.781Z,18.47
2022-09-13T09:12:04.049Z,18.56
2022-09-13T09:14:31.189Z,18.74
2022-09-13T09:16:57.456Z,18.80
2022-09-13T09:19:24.195Z,18.88
2022-09-13T09:21:50.971Z,18.98
2022-09-13T09:24:17.232Z,19.06
2022-09-13T09:26:43.843Z,19.03
2022-09-13T09:29:10.112Z,19.03
2022-09-13T09:31:36.404Z,18.96
2022-09-13T09:34:02.687Z,18.63
2022-09-13T09:36:28.982Z,18.87
2022-09-13T09:38:56.087Z,19.02
2022-09-13T09:41:22.746Z,19.32
2022-09-13T09:43:49.191Z,19.49
2022-09-13T09:46:15.605Z,19.52
2022-09-13T09:48:42.299Z,19.45
2022-09-13T09:51:10.330Z,19.61
2022-09-13T09:53:37.403Z,19.63
2022-09-13T09:56:03.896Z,19.67
2022-09-13T09:58:30.154Z,19.59
2022-09-13T10:00:56.521Z,19.95
2022-09-13T10:03:22.800Z,20.08
2022-09-13T10:05:49.118Z,20.37
2022-09-13T10:08:15.393Z,20.72
2022-09-13T10:10:42.494Z,20.82
2022-09-13T10:13:08.824Z,20.82
2022-09-13T10:15:35.661Z,21.09
2022-09-13T10:18:02.674Z,20.89
2022-09-13T10:20:28.880Z,21.24
2022-09-13T10:22:55.131Z,20.99
2022-09-13T10:25:21.404Z,20.96
2022-09-13T10:27:47.676Z,21.01
2022-09-13T10:30:14.084Z,20.95
2022-09-13T10:32:40.399Z,21.19
2022-09-13T10:35:06.656Z,21.28
2022-09-13T10:37:35.309Z,21.18
2022-09-13T10:40:01.754Z,20.89
2022-09-13T10:42:28.036Z,20.98
2022-09-13T10:44:55.237Z,21.06
2022-09-13T10:47:21.498Z,20.86
2022-09-13T10:49:47.785Z,20.97
2022-09-13T10:52:14.557Z,21.16
2022-09-13T10:54:40.883Z,20.92
2022-09-13T10:57:07.723Z,21.34
2022-09-13T10:59:33.987Z,21.47
2022-09-13T11:02:00.247Z,21.64
2022-09-13T11:04:26.558Z,21.54
2022-09-13T11:06:52.835Z,21.72
2022-09-13T11:09:19.109Z,21.81
2022-09-13T11:11:45.903Z,21.80
2022-09-13T11:14:12.155Z,21.90
2022-09-13T11:16:38.470Z,21.84
2022-09-13T11:19:04.929Z,22.09
2022-09-13T11:21:31.199Z,22.10
2022-09-13T11:23:58.024Z,22.18
2022-09-13T11:26:24.592Z,22.33
2022-09-13T11:28:50.853Z,22.57
2022-09-13T11:31:17.226Z,22.49
2022-09-13T11:33:43.522Z,22.62
2022-09-13T11:36:09.787Z,22.63
2022-09-13T11:38:36.852Z,23.06
2022-09-13T11:41:03.806Z,23.19
2022-09-13T11:43:30.007Z,23.61
2022-09-13T11:45:56.329Z,23.75
2022-09-13T11:48:22.620Z,23.75
2022-09-13T11:50:48.940Z,24.03
2022-09-13T11:53:15.209Z,23.88
2022-09-13T11:55:41.501Z,23.79
2022-09-13T11:58:07.751Z,23.76
2022-09-13T12:00:34.052Z,23.52
2022-09-13T12:03:00.441Z,23.59
2022-09-13T12:05:26.796Z,23.67
2022-09-13T12:07:53.067Z,23.79
2022-09-13T12:10:19.981Z,23.87
2022-09-13T12:12:49.271Z,23.60
2022-09-13T12:15:15.668Z,23.69
2022-09-13T12:17:41.923Z,23.56
2022-09-13T12:20:08.624Z,23.50
2022-09-13T12:22:34.906Z,23.65
2022-09-13T12:25:03.302Z,23.93
2022-09-13T12:27:30.097Z,24.00
2022-09-13T12:29:56.279Z,24.01
2022-09-13T12:32:23.695Z,24.10
2022-09-13T12:34:50.291Z,24.38
2022-09-13T12:37:16.631Z,24.33
2022-09-13T12:39:42.919Z,24.35
2022-09-13T12:42:09.334Z,24.57
2022-09-13T12:44:35.656Z,24.26
2022-09-13T12:47:01.913Z,24.61
2022-09-13T12:49:28.216Z,24.37
2022-09-13T12:51:54.520Z,24.66
2022-09-13T12:54:20.975Z,24.73
2022-09-13T12:56:47.247Z,24.44
2022-09-13T12:59:13.503Z,24.30
2022-09-13T13:01:39.882Z,24.27
2022-09-13T13:04:06.175Z,24.46
2022-09-13T13:06:33.305Z,24.45
2022-09-13T13:08:59.623Z,24.65
2022-09-13T13:11:25.913Z,24.41
2022-09-13T13:13:52.192Z,24.38
2022-09-13T13:16:18.467Z,24.56
2022-09-13T13:18:45.219Z,24.34
2022-09-13T13:21:11.479Z,24.55
2022-09-13T13:23:38.247Z,24.31
2022-09-13T13:26:07.472Z,24.35
2022-09-13T13:28:33.731Z,24.05
2022-09-13T13:31:00.068Z,24.12
2022-09-13T13:33:26.551Z,24.02
2022-09-13T13:35:52.848Z,23.90
2022-09-13T13:38:19.105Z,23.69
2022-09-13T13:40:49.993Z,23.74
2022-09-13T13:43:16.509Z,23.74
2022-09-13T13:45:42.783Z,23.66
2022-09-13T13:48:09.107Z,23.92
2022-09-13T13:50:37.723Z,24.06
2022-09-13T13:53:06.200Z,24.08
2022-09-13T13:55:33.594Z,24.17
2022-09-13T13:57:59.848Z,24.04
2022-09-13T14:00:26.736Z,24.13
2022-09-13T14:02:53.516Z,24.22
2022-09-13T14:05:19.813Z,24.30
2022-09-13T14:07:46.197Z,24.33
2022-09-13T14:10:12.473Z,24.23
2022-09-13T14:12:38.736Z,24.11
2022-09-13T14:15:05.200Z,24.15
2022-09-13T14:17:31.977Z,24.09
2022-09-13T14:19:58.183Z,24.28
2022-09-13T14:22:24.444Z,24.30
2022-09-13T14:24:50.726Z,24.43
2022-09-13T14:27:19.996Z,24.25
2022-09-13T14:29:46.284Z,24.23
2022-09-13T14:32:12.549Z,24.15
2022-09-13T14:34:39.095Z,24.09
2022-09-13T14:37:05.353Z,24.23
2022-09-13T14:39:31.667Z,24.12
2022-09-13T14:41:58.576Z,24.09
2022-09-13T14:44:28.673Z,24.02
2022-09-13T14:46:55.407Z,23.90
2022-09-13T14:49:21.711Z,23.92
2022-09-13T14:51:47.963Z,24.15
2022-09-13T14:54:14.220Z,24.12
2022-09-13T14:56:40.477Z,24.15
2022-09-13T14:59:06.962Z,24.02
2022-09-13T15:01:33.251Z,23.80
2022-09-13T15:03:59.599Z,23.77
2022-09-13T15:06:25.959Z,23.71
2022-09-13T15:08:52.265Z,23.72
2022-09-13T15:11:18.535Z,23.72
2022-09-13T15:13:44.903Z,23.62
2022-09-13T15:16:11.366Z,23.62
2022-09-13T15:18:37.696Z,23.57
2022-09-13T15:21:03.973Z,23.70
2022-09-13T15:23:31.442Z,23.64
2022-09-13T15:25:57.864Z,23.47
2022-09-13T15:28:27.098Z,23.49
2022-09-13T15:30:53.368Z,23.70
2022-09-13T15:33:19.629Z,23.57
2022-09-13T15:35:45.901Z,23.47
2022-09-13T15:38:12.160Z,23.43
2022-09-13T15:40:38.410Z,23.56
2022-09-13T15:43:04.670Z,23.51
2022-09-13T15:45:30.927Z,23.52
2022-09-13T15:47:57.200Z,23.51
2022-09-13T15:50:25.503Z,23.51
2022-09-13T15:52:51.775Z,23.44
2022-09-13T15:55:18.045Z,23.28
2022-09-13T15:57:45.201Z,23.37
2022-09-13T16:00:11.478Z,23.37
2022-09-13T16:02:37.760Z,23.54
2022-09-13T16:05:04.068Z,23.37
2022-09-13T16:07:32.296Z,23.34
2022-09-13T16:09:58.721Z,23.48
2022-09-13T16:12:27.225Z,23.52
2022-09-13T16:14:54.565Z,23.58
2022-09-13T16:17:20.834Z,23.52
2022-09-13T16:19:47.097Z,23.55
2022-09-13T16:22:13.362Z,23.43
2022-09-13T16:24:41.284Z,23.48
2022-09-13T16:27:07.530Z,23.38
2022-09-13T16:29:33.804Z,23.47
2022-09-13T16:32:01.562Z,23.49
2022-09-13T16:34:27.772Z,23.47
2022-09-13T16:36:54.040Z,23.27
2022-09-13T16:39:20.317Z,23.23
2022-09-13T16:41:46.605Z,23.24
2022-09-13T16:44:14.398Z,23.13
2022-09-13T16:46:40.633Z,23.16
2022-09-13T16:49:06.919Z,23.17
2022-09-13T16:51:33.181Z,23.16
2022-09-13T16:54:00.270Z,23.15
2022-09-13T16:56:26.605Z,23.08
2022-09-13T16:58:53.343Z,23.04
2022-09-13T17:01:19.668Z,23.00
2022-09-13T17:03:45.947Z,23.00
2022-09-13T17:06:12.450Z,22.89
2022-09-13T17:08:38.745Z,22.89
2022-09-13T17:11:05.117Z,22.86
2022-09-13T17:13:31.477Z,22.79
2022-09-13T17:15:58.005Z,22.68
2022-09-13T17:18:24.317Z,22.66
2022-09-13T17:20:50.607Z,22.58
2022-09-13T17:23:16.859Z,22.49
2022-09-13T17:25:45.955Z,22.45
2022-09-13T17:28:12.217Z,22.44
2022-09-13T17:30:38.481Z,22.39
2022-09-13T17:33:07.932Z,22.40
2022-09-13T17:35:34.563Z,22.39
2022-09-13T17:38:01.685Z,22.33
2022-09-13T17:40:28.337Z,22.37
2022-09-13T17:42:54.677Z,22.33
2022-09-13T17:45:20.946Z,22.33
2022-09-13T17:47:47.239Z,22.18
2022-09-13T17:50:13.579Z,22.19
2022-09-13T17:52:39.844Z,22.16
2022-09-13T17:55:07.077Z,22.14
2022-09-13T17:57:33.334Z,22.12
2022-09-13T17:59:59.687Z,22.03
2022-09-13T18:02:27.751Z,21.90
2022-09-13T18:04:54.149Z,21.86
2022-09-13T18:07:20.441Z,21.79
2022-09-13T18:09:47.005Z,21.71
2022-09-13T18:12:13.275Z,21.65
2022-09-13T18:14:39.531Z,21.56
2022-09-13T18:17:12.836Z,21.44
2022-09-13T18:19:46.366Z,21.38
2022-09-13T18:22:12.876Z,21.33
2022-09-13T18:24:39.141Z,21.28
2022-09-13T18:27:05.401Z,21.23
2022-09-13T18:29:32.834Z,21.18
2022-09-13T18:31:59.084Z,21.03
2022-09-13T18:34:27.666Z,21.10
2022-09-13T18:36:54.218Z,21.07
2022-09-13T18:39:20.508Z,21.00
2022-09-13T18:41:47.837Z,20.98
2022-09-13T18:44:14.168Z,20.94
2022-09-13T18:46:40.474Z,20.85
2022-09-13T18:49:06.846Z,20.83
2022-09-13T18:51:33.095Z,20.79
2022-09-13T18:53:59.539Z,20.82
2022-09-13T18:56:25.992Z,20.81
2022-09-13T18:58:53.096Z,20.82
2022-09-13T19:01:19.465Z,20.85
2022-09-13T19:03:45.859Z,20.85
2022-09-13T19:06:12.184Z,20.79
2022-09-13T19:08:38.450Z,20.79
2022-09-13T19:11:04.717Z,20.81
2022-09-13T19:13:31.002Z,20.79
2022-09-13T19:15:57.290Z,20.53
2022-09-13T19:18:23.589Z,20.73
2022-09-13T19:20:49.859Z,20.65
2022-09-13T19:23:16.430Z,20.65
2022-09-13T19:25:42.909Z,20.62
2022-09-13T19:28:09.176Z,20.28
2022-09-13T19:30:35.453Z,19.77
2022-09-13T19:33:01.717Z,20.11
2022-09-13T19:35:27.977Z,20.06
2022-09-13T19:37:54.231Z,19.95
2022-09-13T19:40:20.630Z,20.15
2022-09-13T19:42:46.978Z,20.21
2022-09-13T19:45:13.551Z,20.21
2022-09-13T19:50:26.501Z,20.14
2022-09-13T19:52:52.755Z,20.18
2022-09-13T19:55:19.019Z,20.18
2022-09-13T19:57:45.306Z,20.19
2022-09-13T20:00:11.582Z,20.17
2022-09-13T20:02:37.829Z,20.12
2022-09-13T20:05:04.190Z,20.07
2022-09-13T20:07:30.499Z,20.02
2022-09-13T20:09:56.758Z,19.94
2022-09-13T20:12:23.348Z,19.95
2022-09-13T20:14:49.605Z,19.89
2022-09-13T20:17:15.855Z,19.87
2022-09-13T20:19:47.641Z,19.82
2022-09-13T20:22:15.468Z,19.76
2022-09-13T20:24:41.735Z,19.72
2022-09-13T20:27:08.009Z,19.68
2022-09-13T20:29:34.273Z,19.62
2022-09-13T20:32:02.036Z,19.51
2022-09-13T20:34:28.377Z,19.51
2022-09-13T20:36:54.638Z,19.50
2022-09-13T20:39:20.947Z,19.19
2022-09-13T20:41:49.250Z,19.23
2022-09-13T20:44:15.684Z,19.27
2022-09-13T20:46:42.817Z,19.25
2022-09-13T20:49:09.743Z,18.70
2022-09-13T20:51:36.009Z,18.83
2022-09-13T20:54:04.229Z,19.03
2022-09-13T20:56:32.185Z,19.05
2022-09-13T20:59:00.098Z,19.04
2022-09-13T21:01:26.743Z,19.00
2022-09-13T21:03:53.076Z,19.04
2022-09-13T21:06:19.544Z,18.99
2022-09-13T21:08:48.979Z,18.85
2022-09-13T21:11:15.269Z,18.79
2022-09-13T21:13:42.055Z,18.83
2022-09-13T21:16:08.312Z,18.71
2022-09-13T21:18:34.573Z,18.65
2022-09-13T21:21:00.834Z,17.85
2022-09-13T21:23:27.125Z,18.41
2022-09-13T21:25:53.384Z,18.28
2022-09-13T21:28:19.635Z,18.48
2022-09-13T21:30:45.941Z,18.56
2022-09-13T21:33:12.280Z,18.26
2022-09-13T21:35:41.520Z,18.32
2022-09-13T21:38:07.780Z,18.43
2022-09-13T21:40:34.656Z,18.51
2022-09-13T21:43:01.012Z,18.22
2022-09-13T21:45:27.301Z,18.28
2022-09-13T21:47:53.581Z,18.40
2022-09-13T21:50:19.844Z,18.04
2022-09-13T21:52:46.103Z,18.28
2022-09-13T21:55:12.359Z,18.24
2022-09-13T21:57:38.611Z,18.31
2022-09-13T22:00:05.197Z,18.34
2022-09-13T22:02:31.691Z,18.32
2022-09-13T22:04:58.065Z,18.34
2022-09-13T22:07:24.335Z,18.35
2022-09-13T22:09:50.610Z,18.34
2022-09-13T22:12:16.859Z,18.33
2022-09-13T22:14:43.745Z,18.24
2022-09-13T22:17:10.081Z,18.25
2022-09-13T22:19:36.477Z,18.19
2022-09-13T22:22:02.821Z,18.06
2022-09-13T22:24:29.329Z,17.84
2022-09-13T22:26:56.349Z,18.07
2022-09-13T22:29:22.584Z,18.12
2022-09-13T22:31:48.853Z,18.13
2022-09-13T22:34:15.114Z,18.13
2022-09-13T22:36:41.381Z,18.07
2022-09-13T22:39:07.656Z,17.91
2022-09-13T22:41:33.911Z,18.01
2022-09-13T22:44:00.188Z,17.90
2022-09-13T22:46:26.488Z,17.98
2022-09-13T22:48:52.804Z,18.00
2022-09-13T22:51:19.074Z,17.99
2022-09-13T22:53:45.335Z,17.95
2022-09-13T22:56:11.614Z,17.86
2022-09-13T22:58:37.865Z,17.87
2022-09-13T23:01:04.181Z,17.87
2022-09-13T23:03:30.969Z,17.85
2022-09-13T23:05:57.265Z,17.85
2022-09-13T23:08:23.546Z,17.82
2022-09-13T23:10:49.902Z,17.86
2022-09-13T23:13:16.153Z,17.88
2022-09-13T23:15:42.416Z,17.62
2022-09-13T23:18:09.639Z,17.74
2022-09-13T23:20:36.290Z,17.47
2022-09-13T23:23:02.557Z,17.69
2022-09-13T23:25:28.914Z,17.81
2022-09-13T23:27:55.191Z,17.85
2022-09-13T23:30:21.444Z,17.84
2022-09-13T23:32:47.708Z,17.66
2022-09-13T23:35:13.959Z,17.60
2022-09-13T23:37:40.217Z,17.67
2022-09-13T23:40:06.708Z,17.69
2022-09-13T23:42:32.980Z,17.64
2022-09-13T23:44:59.239Z,17.66
2022-09-13T23:47:25.492Z,17.69
2022-09-13T23:49:51.753Z,17.65
2022-09-13T23:52:18.023Z,17.68
2022-09-13T23:54:45.556Z,17.68
2022-09-13T23:57:11.807Z,17.65
2022-09-13T23:59:38.075Z,17.60
